sensor_id;sensor_type;location;lat;lon;timestamp;P1;durP1;ratioP1;P2;durP2;ratioP2
4650;SDS011;2338;49.602;8.722;2023-11-21T00:00:33;8.67;;;2.73;;
4650;SDS011;2338;49.602;8.722;2023-11-21T00:03:19;6.90;;;2.30;;
4650;SDS011;2338;49.602;8.722;2023-11-21T00:06:07;6.23;;;2.27;;
4650;SDS011;2338;49.602;8.722;2023-11-21T00:08:54;3.90;;;1.30;;
4650;SDS011;2338;49.602;8.722;2023-11-21T00:11:40;4.70;;;1.80;;
4650;SDS011;2338;49.602;8.722;2023-11-21T00:14:25;5.40;;;2.13;;
4650;SDS011;2338;49.602;8.722;2023-11-21T00:17:11;4.70;;;1.83;;
4650;SDS011;2338;49.602;8.722;2023-11-21T00:19:57;5.13;;;1.57;;
4650;SDS011;2338;49.602;8.722;2023-11-21T00:25:56;5.30;;;2.10;;
4650;SDS011;2338;49.602;8.722;2023-11-21T00:29:00;8.73;;;2.60;;
4650;SDS011;2338;49.602;8.722;2023-11-21T00:32:17;9.67;;;1.87;;
4650;SDS011;2338;49.602;8.722;2023-11-21T00:35:18;4.53;;;1.93;;
4650;SDS011;2338;49.602;8.722;2023-11-21T00:38:25;5.37;;;2.27;;
4650;SDS011;2338;49.602;8.722;2023-11-21T00:41:47;7.03;;;2.30;;
4650;SDS011;2338;49.602;8.722;2023-11-21T00:44:33;9.23;;;2.00;;
4650;SDS011;2338;49.602;8.722;2023-11-21T00:47:18;6.10;;;2.00;;
4650;SDS011;2338;49.602;8.722;2023-11-21T00:50:06;6.27;;;2.73;;
4650;SDS011;2338;49.602;8.722;2023-11-21T00:52:59;10.10;;;2.77;;
4650;SDS011;2338;49.602;8.722;2023-11-21T00:55:55;10.20;;;2.70;;
4650;SDS011;2338;49.602;8.722;2023-11-21T00:58:44;6.80;;;2.80;;
4650;SDS011;2338;49.602;8.722;2023-11-21T01:01:50;4.60;;;2.60;;
4650;SDS011;2338;49.602;8.722;2023-11-21T01:08:34;8.00;;;2.83;;
4650;SDS011;2338;49.602;8.722;2023-11-21T01:11:44;4.23;;;2.20;;
4650;SDS011;2338;49.602;8.722;2023-11-21T01:14:37;6.87;;;2.33;;
4650;SDS011;2338;49.602;8.722;2023-11-21T01:18:38;5.00;;;2.10;;
4650;SDS011;2338;49.602;8.722;2023-11-21T01:25:23;8.20;;;2.10;;
4650;SDS011;2338;49.602;8.722;2023-11-21T01:29:04;7.93;;;2.30;;
4650;SDS011;2338;49.602;8.722;2023-11-21T01:32:43;4.13;;;2.03;;
4650;SDS011;2338;49.602;8.722;2023-11-21T01:35:46;4.63;;;2.13;;
4650;SDS011;2338;49.602;8.722;2023-11-21T01:39:08;6.37;;;2.60;;
4650;SDS011;2338;49.602;8.722;2023-11-21T01:41:59;5.30;;;2.23;;
4650;SDS011;2338;49.602;8.722;2023-11-21T01:44:47;6.20;;;2.10;;
4650;SDS011;2338;49.602;8.722;2023-11-21T01:51:13;3.13;;;1.60;;
4650;SDS011;2338;49.602;8.722;2023-11-21T01:54:07;8.40;;;2.03;;
4650;SDS011;2338;49.602;8.722;2023-11-21T01:56:53;4.30;;;2.10;;
4650;SDS011;2338;49.602;8.722;2023-11-21T01:59:44;5.13;;;1.97;;
4650;SDS011;2338;49.602;8.722;2023-11-21T02:02:47;5.30;;;2.60;;
4650;SDS011;2338;49.602;8.722;2023-11-21T02:05:35;11.13;;;2.40;;
4650;SDS011;2338;49.602;8.722;2023-11-21T02:15:45;5.00;;;2.20;;
4650;SDS011;2338;49.602;8.722;2023-11-21T02:18:56;9.53;;;2.27;;
4650;SDS011;2338;49.602;8.722;2023-11-21T02:29:35;6.60;;;2.90;;
4650;SDS011;2338;49.602;8.722;2023-11-21T02:32:32;4.90;;;2.30;;
4650;SDS011;2338;49.602;8.722;2023-11-21T02:35:47;8.73;;;2.30;;
4650;SDS011;2338;49.602;8.722;2023-11-21T02:38:37;5.27;;;2.50;;
4650;SDS011;2338;49.602;8.722;2023-11-21T02:42:17;4.90;;;2.60;;
4650;SDS011;2338;49.602;8.722;2023-11-21T02:45:54;7.20;;;2.60;;
4650;SDS011;2338;49.602;8.722;2023-11-21T02:59:05;14.73;;;3.33;;
4650;SDS011;2338;49.602;8.722;2023-11-21T03:02:23;7.47;;;2.70;;
4650;SDS011;2338;49.602;8.722;2023-11-21T03:05:09;6.00;;;3.30;;
4650;SDS011;2338;49.602;8.722;2023-11-21T03:07:55;4.47;;;2.30;;
4650;SDS011;2338;49.602;8.722;2023-11-21T03:10:40;4.80;;;2.20;;
4650;SDS011;2338;49.602;8.722;2023-11-21T03:14:48;5.07;;;2.70;;
4650;SDS011;2338;49.602;8.722;2023-11-21T03:24:03;5.73;;;2.73;;
4650;SDS011;2338;49.602;8.722;2023-11-21T03:26:49;4.60;;;2.93;;
4650;SDS011;2338;49.602;8.722;2023-11-21T03:29:37;7.30;;;3.43;;
4650;SDS011;2338;49.602;8.722;2023-11-21T03:36:15;9.33;;;4.43;;
4650;SDS011;2338;49.602;8.722;2023-11-21T03:39:02;7.53;;;3.60;;
4650;SDS011;2338;49.602;8.722;2023-11-21T03:41:49;5.37;;;3.43;;
4650;SDS011;2338;49.602;8.722;2023-11-21T03:47:59;7.40;;;3.30;;
4650;SDS011;2338;49.602;8.722;2023-11-21T03:51:05;3.40;;;2.77;;
4650;SDS011;2338;49.602;8.722;2023-11-21T03:54:28;7.87;;;2.87;;
4650;SDS011;2338;49.602;8.722;2023-11-21T03:57:16;8.00;;;3.00;;
4650;SDS011;2338;49.602;8.722;2023-11-21T04:00:11;5.63;;;3.07;;
4650;SDS011;2338;49.602;8.722;2023-11-21T04:03:46;3.20;;;2.60;;
4650;SDS011;2338;49.602;8.722;2023-11-21T04:06:34;5.13;;;2.87;;
4650;SDS011;2338;49.602;8.722;2023-11-21T04:09:42;4.50;;;2.70;;
4650;SDS011;2338;49.602;8.722;2023-11-21T04:12:48;4.43;;;2.97;;
4650;SDS011;2338;49.602;8.722;2023-11-21T04:19:35;9.40;;;4.30;;
4650;SDS011;2338;49.602;8.722;2023-11-21T04:22:34;5.03;;;3.63;;
4650;SDS011;2338;49.602;8.722;2023-11-21T04:25:23;6.10;;;4.23;;
4650;SDS011;2338;49.602;8.722;2023-11-21T04:28:36;8.27;;;4.10;;
4650;SDS011;2338;49.602;8.722;2023-11-21T04:31:22;7.97;;;4.37;;
4650;SDS011;2338;49.602;8.722;2023-11-21T04:34:08;6.33;;;4.03;;
4650;SDS011;2338;49.602;8.722;2023-11-21T04:40:28;6.53;;;4.47;;
4650;SDS011;2338;49.602;8.722;2023-11-21T04:45:35;4.67;;;3.93;;
4650;SDS011;2338;49.602;8.722;2023-11-21T04:47:13;5.07;;;3.73;;
4650;SDS011;2338;49.602;8.722;2023-11-21T04:49:59;5.93;;;4.70;;
4650;SDS011;2338;49.602;8.722;2023-11-21T04:52:44;7.80;;;4.67;;
4650;SDS011;2338;49.602;8.722;2023-11-21T04:55:37;10.47;;;3.90;;
4650;SDS011;2338;49.602;8.722;2023-11-21T04:58:26;6.20;;;4.60;;
4650;SDS011;2338;49.602;8.722;2023-11-21T05:01:16;5.93;;;4.47;;
4650;SDS011;2338;49.602;8.722;2023-11-21T05:04:22;6.23;;;4.37;;
4650;SDS011;2338;49.602;8.722;2023-11-21T05:07:43;6.47;;;4.90;;
4650;SDS011;2338;49.602;8.722;2023-11-21T05:17:25;5.67;;;4.80;;
4650;SDS011;2338;49.602;8.722;2023-11-21T05:21:42;6.43;;;4.70;;
4650;SDS011;2338;49.602;8.722;2023-11-21T05:28:07;10.83;;;4.27;;
4650;SDS011;2338;49.602;8.722;2023-11-21T05:31:00;5.07;;;4.17;;
4650;SDS011;2338;49.602;8.722;2023-11-21T05:33:46;4.97;;;4.17;;
4650;SDS011;2338;49.602;8.722;2023-11-21T05:36:32;8.77;;;3.97;;
4650;SDS011;2338;49.602;8.722;2023-11-21T05:39:18;5.93;;;4.53;;
4650;SDS011;2338;49.602;8.722;2023-11-21T05:49:19;11.80;;;4.73;;
4650;SDS011;2338;49.602;8.722;2023-11-21T05:52:05;11.43;;;4.80;;
4650;SDS011;2338;49.602;8.722;2023-11-21T05:54:51;12.20;;;5.23;;
4650;SDS011;2338;49.602;8.722;2023-11-21T05:57:37;9.77;;;4.63;;
4650;SDS011;2338;49.602;8.722;2023-11-21T06:00:23;8.03;;;5.07;;
4650;SDS011;2338;49.602;8.722;2023-11-21T06:03:29;6.90;;;5.10;;
4650;SDS011;2338;49.602;8.722;2023-11-21T06:06:16;5.83;;;5.10;;
4650;SDS011;2338;49.602;8.722;2023-11-21T06:09:39;6.60;;;5.10;;
4650;SDS011;2338;49.602;8.722;2023-11-21T06:12:25;11.57;;;5.47;;
4650;SDS011;2338;49.602;8.722;2023-11-21T06:15:11;7.87;;;5.97;;
4650;SDS011;2338;49.602;8.722;2023-11-21T06:17:58;11.33;;;5.43;;
4650;SDS011;2338;49.602;8.722;2023-11-21T06:20:43;7.27;;;6.20;;
4650;SDS011;2338;49.602;8.722;2023-11-21T06:23:30;7.80;;;7.00;;
4650;SDS011;2338;49.602;8.722;2023-11-21T06:26:16;12.70;;;7.50;;
4650;SDS011;2338;49.602;8.722;2023-11-21T06:29:02;10.23;;;6.57;;
4650;SDS011;2338;49.602;8.722;2023-11-21T06:38:39;12.70;;;6.77;;
4650;SDS011;2338;49.602;8.722;2023-11-21T06:45:39;9.30;;;7.77;;
4650;SDS011;2338;49.602;8.722;2023-11-21T06:48:38;9.53;;;7.60;;
4650;SDS011;2338;49.602;8.722;2023-11-21T06:51:25;9.13;;;7.93;;
4650;SDS011;2338;49.602;8.722;2023-11-21T06:54:13;18.97;;;8.60;;
4650;SDS011;2338;49.602;8.722;2023-11-21T06:57:01;10.23;;;8.93;;
4650;SDS011;2338;49.602;8.722;2023-11-21T07:03:05;9.53;;;8.50;;
4650;SDS011;2338;49.602;8.722;2023-11-21T07:05:57;10.23;;;7.83;;
4650;SDS011;2338;49.602;8.722;2023-11-21T07:08:43;9.90;;;7.73;;
4650;SDS011;2338;49.602;8.722;2023-11-21T07:11:30;10.60;;;8.30;;
4650;SDS011;2338;49.602;8.722;2023-11-21T07:14:16;12.13;;;8.77;;
4650;SDS011;2338;49.602;8.722;2023-11-21T07:17:03;11.00;;;8.13;;
4650;SDS011;2338;49.602;8.722;2023-11-21T07:19:50;22.37;;;9.90;;
4650;SDS011;2338;49.602;8.722;2023-11-21T07:22:43;10.27;;;9.17;;
4650;SDS011;2338;49.602;8.722;2023-11-21T07:25:28;12.90;;;9.27;;
4650;SDS011;2338;49.602;8.722;2023-11-21T07:28:16;13.63;;;9.07;;
4650;SDS011;2338;49.602;8.722;2023-11-21T07:31:02;12.70;;;10.50;;
4650;SDS011;2338;49.602;8.722;2023-11-21T07:33:48;12.90;;;10.60;;
4650;SDS011;2338;49.602;8.722;2023-11-21T07:36:34;13.00;;;8.50;;
4650;SDS011;2338;49.602;8.722;2023-11-21T07:42:52;5.33;;;4.50;;
4650;SDS011;2338;49.602;8.722;2023-11-21T07:45:42;5.83;;;4.27;;
4650;SDS011;2338;49.602;8.722;2023-11-21T07:48:28;5.13;;;3.53;;
4650;SDS011;2338;49.602;8.722;2023-11-21T07:51:13;4.50;;;3.17;;
4650;SDS011;2338;49.602;8.722;2023-11-21T07:53:59;7.73;;;3.97;;
4650;SDS011;2338;49.602;8.722;2023-11-21T07:56:45;3.43;;;2.53;;
4650;SDS011;2338;49.602;8.722;2023-11-21T07:59:31;4.10;;;2.63;;
4650;SDS011;2338;49.602;8.722;2023-11-21T08:02:22;3.50;;;2.40;;
4650;SDS011;2338;49.602;8.722;2023-11-21T08:05:10;2.87;;;2.23;;
4650;SDS011;2338;49.602;8.722;2023-11-21T08:07:56;2.60;;;1.60;;
4650;SDS011;2338;49.602;8.722;2023-11-21T08:13:48;4.80;;;3.27;;
4650;SDS011;2338;49.602;8.722;2023-11-21T08:16:46;2.70;;;2.13;;
4650;SDS011;2338;49.602;8.722;2023-11-21T08:19:33;5.47;;;3.27;;
4650;SDS011;2338;49.602;8.722;2023-11-21T08:22:19;3.70;;;2.27;;
4650;SDS011;2338;49.602;8.722;2023-11-21T08:25:07;6.23;;;3.13;;
4650;SDS011;2338;49.602;8.722;2023-11-21T08:27:53;2.73;;;1.93;;
4650;SDS011;2338;49.602;8.722;2023-11-21T08:30:38;2.33;;;1.47;;
4650;SDS011;2338;49.602;8.722;2023-11-21T08:33:25;4.00;;;2.00;;
4650;SDS011;2338;49.602;8.722;2023-11-21T08:36:13;3.80;;;1.70;;
4650;SDS011;2338;49.602;8.722;2023-11-21T08:38:59;3.10;;;2.43;;
4650;SDS011;2338;49.602;8.722;2023-11-21T08:41:45;5.70;;;4.00;;
4650;SDS011;2338;49.602;8.722;2023-11-21T08:44:31;7.67;;;4.57;;
4650;SDS011;2338;49.602;8.722;2023-11-21T08:47:16;9.03;;;4.00;;
4650;SDS011;2338;49.602;8.722;2023-11-21T08:50:02;4.53;;;3.67;;
4650;SDS011;2338;49.602;8.722;2023-11-21T08:52:51;3.93;;;3.03;;
4650;SDS011;2338;49.602;8.722;2023-11-21T08:55:36;7.37;;;4.97;;
4650;SDS011;2338;49.602;8.722;2023-11-21T08:58:31;6.40;;;4.40;;
4650;SDS011;2338;49.602;8.722;2023-11-21T09:01:17;5.30;;;3.90;;
4650;SDS011;2338;49.602;8.722;2023-11-21T09:04:02;5.40;;;3.53;;
4650;SDS011;2338;49.602;8.722;2023-11-21T09:06:48;6.40;;;5.70;;
4650;SDS011;2338;49.602;8.722;2023-11-21T09:09:35;4.43;;;2.93;;
4650;SDS011;2338;49.602;8.722;2023-11-21T09:12:21;3.80;;;2.97;;
4650;SDS011;2338;49.602;8.722;2023-11-21T09:15:09;4.63;;;3.40;;
4650;SDS011;2338;49.602;8.722;2023-11-21T09:17:55;5.03;;;3.57;;
4650;SDS011;2338;49.602;8.722;2023-11-21T09:20:41;10.60;;;4.50;;
4650;SDS011;2338;49.602;8.722;2023-11-21T09:23:45;5.53;;;4.00;;
4650;SDS011;2338;49.602;8.722;2023-11-21T09:26:40;4.50;;;2.93;;
4650;SDS011;2338;49.602;8.722;2023-11-21T09:29:31;4.63;;;3.80;;
4650;SDS011;2338;49.602;8.722;2023-11-21T09:32:17;4.60;;;3.17;;
4650;SDS011;2338;49.602;8.722;2023-11-21T09:35:03;5.43;;;4.03;;
4650;SDS011;2338;49.602;8.722;2023-11-21T09:37:49;6.17;;;3.90;;
4650;SDS011;2338;49.602;8.722;2023-11-21T09:40:35;8.37;;;4.30;;
4650;SDS011;2338;49.602;8.722;2023-11-21T09:43:23;6.07;;;4.03;;
4650;SDS011;2338;49.602;8.722;2023-11-21T09:46:12;5.27;;;3.57;;
4650;SDS011;2338;49.602;8.722;2023-11-21T09:49:03;6.10;;;3.47;;
4650;SDS011;2338;49.602;8.722;2023-11-21T09:51:53;6.27;;;4.27;;
4650;SDS011;2338;49.602;8.722;2023-11-21T09:54:40;5.53;;;3.97;;
4650;SDS011;2338;49.602;8.722;2023-11-21T10:00:35;4.70;;;3.90;;
4650;SDS011;2338;49.602;8.722;2023-11-21T10:03:21;6.70;;;5.03;;
4650;SDS011;2338;49.602;8.722;2023-11-21T10:06:10;7.67;;;4.30;;
4650;SDS011;2338;49.602;8.722;2023-11-21T10:09:12;6.90;;;4.47;;
4650;SDS011;2338;49.602;8.722;2023-11-21T10:12:00;5.50;;;3.63;;
4650;SDS011;2338;49.602;8.722;2023-11-21T10:14:47;5.60;;;4.20;;
4650;SDS011;2338;49.602;8.722;2023-11-21T10:17:37;4.67;;;3.43;;
4650;SDS011;2338;49.602;8.722;2023-11-21T10:20:26;5.03;;;3.80;;
4650;SDS011;2338;49.602;8.722;2023-11-21T10:23:13;7.90;;;5.17;;
4650;SDS011;2338;49.602;8.722;2023-11-21T10:29:07;6.13;;;4.60;;
4650;SDS011;2338;49.602;8.722;2023-11-21T10:31:56;7.70;;;5.63;;
4650;SDS011;2338;49.602;8.722;2023-11-21T10:34:55;7.97;;;5.40;;
4650;SDS011;2338;49.602;8.722;2023-11-21T10:37:41;8.57;;;5.10;;
4650;SDS011;2338;49.602;8.722;2023-11-21T10:40:28;8.70;;;5.70;;
4650;SDS011;2338;49.602;8.722;2023-11-21T10:43:14;7.17;;;4.87;;
4650;SDS011;2338;49.602;8.722;2023-11-21T10:46:00;5.73;;;4.83;;
4650;SDS011;2338;49.602;8.722;2023-11-21T10:48:50;7.83;;;5.70;;
4650;SDS011;2338;49.602;8.722;2023-11-21T10:51:39;4.53;;;4.13;;
4650;SDS011;2338;49.602;8.722;2023-11-21T10:54:34;9.13;;;3.87;;
4650;SDS011;2338;49.602;8.722;2023-11-21T10:57:43;4.33;;;3.60;;
4650;SDS011;2338;49.602;8.722;2023-11-21T11:00:32;6.13;;;4.07;;
4650;SDS011;2338;49.602;8.722;2023-11-21T11:03:18;5.53;;;4.23;;
4650;SDS011;2338;49.602;8.722;2023-11-21T11:06:04;5.97;;;3.30;;
4650;SDS011;2338;49.602;8.722;2023-11-21T11:08:56;11.60;;;3.10;;
4650;SDS011;2338;49.602;8.722;2023-11-21T11:11:42;4.70;;;2.73;;
4650;SDS011;2338;49.602;8.722;2023-11-21T11:14:28;2.90;;;2.50;;
4650;SDS011;2338;49.602;8.722;2023-11-21T11:17:15;3.00;;;2.27;;
4650;SDS011;2338;49.602;8.722;2023-11-21T11:20:04;4.30;;;2.50;;
4650;SDS011;2338;49.602;8.722;2023-11-21T11:22:58;3.57;;;2.23;;
4650;SDS011;2338;49.602;8.722;2023-11-21T11:26:01;8.17;;;2.50;;
4650;SDS011;2338;49.602;8.722;2023-11-21T11:28:56;4.00;;;2.83;;
4650;SDS011;2338;49.602;8.722;2023-11-21T11:31:54;3.97;;;2.67;;
4650;SDS011;2338;49.602;8.722;2023-11-21T11:34:52;3.10;;;2.17;;
4650;SDS011;2338;49.602;8.722;2023-11-21T11:37:44;3.00;;;2.40;;
4650;SDS011;2338;49.602;8.722;2023-11-21T11:40:39;3.43;;;2.50;;
4650;SDS011;2338;49.602;8.722;2023-11-21T11:43:27;5.27;;;2.53;;
4650;SDS011;2338;49.602;8.722;2023-11-21T11:46:14;2.90;;;2.10;;
4650;SDS011;2338;49.602;8.722;2023-11-21T11:49:02;4.40;;;2.60;;
4650;SDS011;2338;49.602;8.722;2023-11-21T11:51:48;8.30;;;2.50;;
4650;SDS011;2338;49.602;8.722;2023-11-21T11:54:55;4.67;;;2.77;;
4650;SDS011;2338;49.602;8.722;2023-11-21T11:57:45;3.73;;;2.50;;
4650;SDS011;2338;49.602;8.722;2023-11-21T12:00:35;4.27;;;1.83;;
4650;SDS011;2338;49.602;8.722;2023-11-21T12:03:23;3.13;;;1.83;;
4650;SDS011;2338;49.602;8.722;2023-11-21T12:06:09;4.60;;;2.80;;
4650;SDS011;2338;49.602;8.722;2023-11-21T12:08:57;3.60;;;2.20;;
4650;SDS011;2338;49.602;8.722;2023-11-21T12:11:48;3.37;;;2.00;;
4650;SDS011;2338;49.602;8.722;2023-11-21T12:14:38;6.37;;;2.60;;
4650;SDS011;2338;49.602;8.722;2023-11-21T12:17:27;3.50;;;2.27;;
4650;SDS011;2338;49.602;8.722;2023-11-21T12:20:13;3.37;;;2.37;;
4650;SDS011;2338;49.602;8.722;2023-11-21T12:23:01;6.03;;;2.70;;
4650;SDS011;2338;49.602;8.722;2023-11-21T12:25:47;3.50;;;2.27;;
4650;SDS011;2338;49.602;8.722;2023-11-21T12:28:38;5.70;;;2.37;;
4650;SDS011;2338;49.602;8.722;2023-11-21T12:31:57;5.90;;;2.07;;
4650;SDS011;2338;49.602;8.722;2023-11-21T12:34:47;2.77;;;1.77;;
4650;SDS011;2338;49.602;8.722;2023-11-21T12:37:40;6.20;;;2.13;;
4650;SDS011;2338;49.602;8.722;2023-11-21T12:40:33;6.10;;;2.00;;
4650;SDS011;2338;49.602;8.722;2023-11-21T12:43:19;8.27;;;2.43;;
4650;SDS011;2338;49.602;8.722;2023-11-21T12:46:05;4.90;;;2.07;;
4650;SDS011;2338;49.602;8.722;2023-11-21T12:48:52;2.40;;;1.70;;
4650;SDS011;2338;49.602;8.722;2023-11-21T12:51:41;3.70;;;2.00;;
4650;SDS011;2338;49.602;8.722;2023-11-21T12:54:28;2.80;;;1.70;;
4650;SDS011;2338;49.602;8.722;2023-11-21T12:57:14;4.47;;;2.37;;
4650;SDS011;2338;49.602;8.722;2023-11-21T13:00:00;4.00;;;2.33;;
4650;SDS011;2338;49.602;8.722;2023-11-21T13:02:54;7.53;;;4.03;;
4650;SDS011;2338;49.602;8.722;2023-11-21T13:05:42;3.87;;;2.10;;
4650;SDS011;2338;49.602;8.722;2023-11-21T13:08:31;6.20;;;2.30;;
4650;SDS011;2338;49.602;8.722;2023-11-21T13:11:17;9.23;;;5.67;;
4650;SDS011;2338;49.602;8.722;2023-11-21T13:14:03;6.30;;;3.50;;
4650;SDS011;2338;49.602;8.722;2023-11-21T13:16:49;7.63;;;3.90;;
4650;SDS011;2338;49.602;8.722;2023-11-21T13:19:36;7.67;;;5.60;;
4650;SDS011;2338;49.602;8.722;2023-11-21T13:25:42;5.20;;;3.20;;
4650;SDS011;2338;49.602;8.722;2023-11-21T13:28:39;4.20;;;2.20;;
4650;SDS011;2338;49.602;8.722;2023-11-21T13:31:30;4.50;;;2.80;;
4650;SDS011;2338;49.602;8.722;2023-11-21T13:37:30;4.10;;;1.77;;
4650;SDS011;2338;49.602;8.722;2023-11-21T13:40:16;2.70;;;1.63;;
4650;SDS011;2338;49.602;8.722;2023-11-21T13:46:22;10.20;;;2.70;;
4650;SDS011;2338;49.602;8.722;2023-11-21T13:49:08;2.83;;;2.00;;
4650;SDS011;2338;49.602;8.722;2023-11-21T13:51:54;4.07;;;2.53;;
4650;SDS011;2338;49.602;8.722;2023-11-21T13:54:40;8.60;;;2.67;;
4650;SDS011;2338;49.602;8.722;2023-11-21T13:57:26;4.87;;;2.57;;
4650;SDS011;2338;49.602;8.722;2023-11-21T14:00:14;4.40;;;2.80;;
4650;SDS011;2338;49.602;8.722;2023-11-21T14:03:24;7.40;;;3.17;;
4650;SDS011;2338;49.602;8.722;2023-11-21T14:06:23;5.00;;;3.23;;
4650;SDS011;2338;49.602;8.722;2023-11-21T14:09:16;9.37;;;4.10;;
4650;SDS011;2338;49.602;8.722;2023-11-21T14:12:06;10.17;;;4.27;;
4650;SDS011;2338;49.602;8.722;2023-11-21T14:14:53;13.00;;;4.67;;
4650;SDS011;2338;49.602;8.722;2023-11-21T14:17:40;8.83;;;3.70;;
4650;SDS011;2338;49.602;8.722;2023-11-21T14:20:25;9.37;;;4.23;;
4650;SDS011;2338;49.602;8.722;2023-11-21T14:23:13;7.63;;;3.40;;
4650;SDS011;2338;49.602;8.722;2023-11-21T14:25:59;5.40;;;3.70;;
4650;SDS011;2338;49.602;8.722;2023-11-21T14:28:45;5.73;;;3.40;;
4650;SDS011;2338;49.602;8.722;2023-11-21T14:31:32;8.20;;;4.27;;
4650;SDS011;2338;49.602;8.722;2023-11-21T14:34:20;14.90;;;4.60;;
4650;SDS011;2338;49.602;8.722;2023-11-21T14:37:05;11.60;;;4.70;;
4650;SDS011;2338;49.602;8.722;2023-11-21T14:39:51;13.83;;;3.40;;
4650;SDS011;2338;49.602;8.722;2023-11-21T14:42:38;9.57;;;3.77;;
4650;SDS011;2338;49.602;8.722;2023-11-21T14:45:26;7.40;;;3.30;;
4650;SDS011;2338;49.602;8.722;2023-11-21T14:48:13;6.93;;;3.33;;
4650;SDS011;2338;49.602;8.722;2023-11-21T14:51:17;10.43;;;4.77;;
4650;SDS011;2338;49.602;8.722;2023-11-21T14:54:34;9.07;;;3.97;;
4650;SDS011;2338;49.602;8.722;2023-11-21T14:57:30;12.33;;;5.20;;
4650;SDS011;2338;49.602;8.722;2023-11-21T15:00:16;16.73;;;5.57;;
4650;SDS011;2338;49.602;8.722;2023-11-21T15:03:10;18.70;;;6.60;;
4650;SDS011;2338;49.602;8.722;2023-11-21T15:06:10;8.27;;;3.90;;
4650;SDS011;2338;49.602;8.722;2023-11-21T15:09:10;7.20;;;3.70;;
4650;SDS011;2338;49.602;8.722;2023-11-21T15:12:22;7.33;;;5.07;;
4650;SDS011;2338;49.602;8.722;2023-11-21T15:15:10;8.00;;;4.70;;
4650;SDS011;2338;49.602;8.722;2023-11-21T15:17:58;10.30;;;5.13;;
4650;SDS011;2338;49.602;8.722;2023-11-21T15:20:45;9.50;;;5.00;;
4650;SDS011;2338;49.602;8.722;2023-11-21T15:23:31;12.10;;;6.67;;
4650;SDS011;2338;49.602;8.722;2023-11-21T15:26:18;11.00;;;5.70;;
4650;SDS011;2338;49.602;8.722;2023-11-21T15:29:06;11.50;;;5.80;;
4650;SDS011;2338;49.602;8.722;2023-11-21T15:31:51;13.17;;;5.07;;
4650;SDS011;2338;49.602;8.722;2023-11-21T15:34:40;11.53;;;5.43;;
4650;SDS011;2338;49.602;8.722;2023-11-21T15:37:27;11.93;;;5.33;;
4650;SDS011;2338;49.602;8.722;2023-11-21T15:40:12;11.63;;;4.80;;
4650;SDS011;2338;49.602;8.722;2023-11-21T15:43:00;8.97;;;4.70;;
4650;SDS011;2338;49.602;8.722;2023-11-21T15:45:46;13.07;;;4.30;;
4650;SDS011;2338;49.602;8.722;2023-11-21T15:48:32;7.07;;;4.63;;
4650;SDS011;2338;49.602;8.722;2023-11-21T15:51:19;10.93;;;5.23;;
4650;SDS011;2338;49.602;8.722;2023-11-21T15:54:06;13.80;;;4.37;;
4650;SDS011;2338;49.602;8.722;2023-11-21T15:56:53;8.27;;;4.30;;
4650;SDS011;2338;49.602;8.722;2023-11-21T15:59:41;5.27;;;3.80;;
4650;SDS011;2338;49.602;8.722;2023-11-21T16:02:28;6.47;;;3.50;;
4650;SDS011;2338;49.602;8.722;2023-11-21T16:05:15;11.20;;;4.20;;
4650;SDS011;2338;49.602;8.722;2023-11-21T16:08:01;8.93;;;3.60;;
4650;SDS011;2338;49.602;8.722;2023-11-21T16:10:48;9.30;;;5.20;;
4650;SDS011;2338;49.602;8.722;2023-11-21T16:13:34;11.13;;;5.13;;
4650;SDS011;2338;49.602;8.722;2023-11-21T16:16:20;11.50;;;5.20;;
4650;SDS011;2338;49.602;8.722;2023-11-21T16:19:07;17.50;;;5.87;;
4650;SDS011;2338;49.602;8.722;2023-11-21T16:21:52;10.97;;;5.60;;
4650;SDS011;2338;49.602;8.722;2023-11-21T16:24:38;10.40;;;5.90;;
4650;SDS011;2338;49.602;8.722;2023-11-21T16:27:25;8.30;;;5.70;;
4650;SDS011;2338;49.602;8.722;2023-11-21T16:30:11;12.67;;;6.40;;
4650;SDS011;2338;49.602;8.722;2023-11-21T16:32:57;13.70;;;6.03;;
4650;SDS011;2338;49.602;8.722;2023-11-21T16:35:42;9.00;;;5.73;;
4650;SDS011;2338;49.602;8.722;2023-11-21T16:38:31;17.60;;;5.30;;
4650;SDS011;2338;49.602;8.722;2023-11-21T16:41:16;6.00;;;4.80;;
4650;SDS011;2338;49.602;8.722;2023-11-21T16:44:04;20.57;;;7.57;;
4650;SDS011;2338;49.602;8.722;2023-11-21T16:46:51;8.93;;;5.90;;
4650;SDS011;2338;49.602;8.722;2023-11-21T16:49:37;11.27;;;5.20;;
4650;SDS011;2338;49.602;8.722;2023-11-21T16:52:24;6.07;;;4.40;;
4650;SDS011;2338;49.602;8.722;2023-11-21T16:55:09;8.13;;;4.60;;
4650;SDS011;2338;49.602;8.722;2023-11-21T16:57:56;6.73;;;4.30;;
4650;SDS011;2338;49.602;8.722;2023-11-21T17:00:44;7.67;;;3.43;;
4650;SDS011;2338;49.602;8.722;2023-11-21T17:03:31;6.73;;;3.20;;
4650;SDS011;2338;49.602;8.722;2023-11-21T17:06:16;6.47;;;3.50;;
4650;SDS011;2338;49.602;8.722;2023-11-21T17:09:02;11.70;;;4.43;;
4650;SDS011;2338;49.602;8.722;2023-11-21T17:11:48;5.57;;;4.07;;
4650;SDS011;2338;49.602;8.722;2023-11-21T17:14:35;10.23;;;4.50;;
4650;SDS011;2338;49.602;8.722;2023-11-21T17:17:24;5.40;;;3.73;;
4650;SDS011;2338;49.602;8.722;2023-11-21T17:20:10;6.00;;;4.40;;
4650;SDS011;2338;49.602;8.722;2023-11-21T17:22:57;6.77;;;3.00;;
4650;SDS011;2338;49.602;8.722;2023-11-21T17:25:42;5.30;;;3.27;;
4650;SDS011;2338;49.602;8.722;2023-11-21T17:28:28;8.27;;;3.70;;
4650;SDS011;2338;49.602;8.722;2023-11-21T17:31:14;8.37;;;5.13;;
4650;SDS011;2338;49.602;8.722;2023-11-21T17:34:02;6.70;;;3.90;;
4650;SDS011;2338;49.602;8.722;2023-11-21T17:36:48;7.00;;;3.53;;
4650;SDS011;2338;49.602;8.722;2023-11-21T17:39:34;9.93;;;3.87;;
4650;SDS011;2338;49.602;8.722;2023-11-21T17:42:19;4.57;;;3.37;;
4650;SDS011;2338;49.602;8.722;2023-11-21T17:45:05;7.77;;;3.60;;
4650;SDS011;2338;49.602;8.722;2023-11-21T17:47:52;5.70;;;3.47;;
4650;SDS011;2338;49.602;8.722;2023-11-21T17:50:39;9.03;;;3.80;;
4650;SDS011;2338;49.602;8.722;2023-11-21T17:53:25;8.97;;;4.03;;
4650;SDS011;2338;49.602;8.722;2023-11-21T17:56:12;5.73;;;3.30;;
4650;SDS011;2338;49.602;8.722;2023-11-21T17:58:58;6.20;;;2.67;;
4650;SDS011;2338;49.602;8.722;2023-11-21T18:01:46;5.37;;;3.37;;
4650;SDS011;2338;49.602;8.722;2023-11-21T18:04:32;5.90;;;3.30;;
4650;SDS011;2338;49.602;8.722;2023-11-21T18:07:20;7.23;;;3.00;;
4650;SDS011;2338;49.602;8.722;2023-11-21T18:10:06;8.53;;;2.93;;
4650;SDS011;2338;49.602;8.722;2023-11-21T18:12:53;7.17;;;3.53;;
4650;SDS011;2338;49.602;8.722;2023-11-21T18:15:38;5.90;;;3.60;;
4650;SDS011;2338;49.602;8.722;2023-11-21T18:18:24;9.77;;;3.90;;
4650;SDS011;2338;49.602;8.722;2023-11-21T18:21:10;5.57;;;2.73;;
4650;SDS011;2338;49.602;8.722;2023-11-21T18:23:58;17.10;;;3.00;;
4650;SDS011;2338;49.602;8.722;2023-11-21T18:26:43;5.37;;;3.40;;
4650;SDS011;2338;49.602;8.722;2023-11-21T18:29:29;6.73;;;3.60;;
4650;SDS011;2338;49.602;8.722;2023-11-21T18:32:15;7.43;;;2.77;;
4650;SDS011;2338;49.602;8.722;2023-11-21T18:35:01;9.10;;;3.37;;
4650;SDS011;2338;49.602;8.722;2023-11-21T18:37:47;7.90;;;3.10;;
4650;SDS011;2338;49.602;8.722;2023-11-21T18:40:34;5.27;;;2.63;;
4650;SDS011;2338;49.602;8.722;2023-11-21T18:43:19;8.83;;;3.77;;
4650;SDS011;2338;49.602;8.722;2023-11-21T18:46:05;14.03;;;4.00;;
4650;SDS011;2338;49.602;8.722;2023-11-21T18:48:51;4.77;;;2.90;;
4650;SDS011;2338;49.602;8.722;2023-11-21T18:51:37;8.67;;;3.87;;
4650;SDS011;2338;49.602;8.722;2023-11-21T18:54:22;8.70;;;3.40;;
4650;SDS011;2338;49.602;8.722;2023-11-21T18:57:09;7.20;;;2.73;;
4650;SDS011;2338;49.602;8.722;2023-11-21T18:59:55;5.93;;;3.10;;
4650;SDS011;2338;49.602;8.722;2023-11-21T19:02:41;5.50;;;3.13;;
4650;SDS011;2338;49.602;8.722;2023-11-21T19:05:27;7.33;;;3.10;;
4650;SDS011;2338;49.602;8.722;2023-11-21T19:08:13;6.50;;;3.27;;
4650;SDS011;2338;49.602;8.722;2023-11-21T19:10:59;6.60;;;5.00;;
4650;SDS011;2338;49.602;8.722;2023-11-21T19:13:46;11.57;;;4.27;;
4650;SDS011;2338;49.602;8.722;2023-11-21T19:16:31;6.13;;;3.60;;
4650;SDS011;2338;49.602;8.722;2023-11-21T19:19:17;10.00;;;4.00;;
4650;SDS011;2338;49.602;8.722;2023-11-21T19:22:03;6.17;;;4.00;;
4650;SDS011;2338;49.602;8.722;2023-11-21T19:24:49;6.30;;;3.97;;
4650;SDS011;2338;49.602;8.722;2023-11-21T19:27:35;7.10;;;4.00;;
4650;SDS011;2338;49.602;8.722;2023-11-21T19:30:22;8.67;;;5.10;;
4650;SDS011;2338;49.602;8.722;2023-11-21T19:33:07;11.07;;;4.20;;
4650;SDS011;2338;49.602;8.722;2023-11-21T19:35:54;12.83;;;4.73;;